Terminal Aerodrome Forecast
Issued by NWS

Home | Current Version | Previous Version | Text Only | Print | Product List | Glossary On
Versions: 1 2 3 4 5 6 7 8 9 10 11 12 13 14 15 16 17
527
FTUS42 KMLB 232023 AAA
TAFLEE
TAF AMD
KLEE 232023Z 2320/2418 07015G24KT P6SM VCSH SCT030 SCT045 BKN060
      TEMPO 2320/2321 6SM SHRA BKN045
     FM232200 07017G24KT P6SM SCT035 BKN080
     FM240200 06007KT P6SM FEW030 BKN100
     FM241400 09012KT P6SM SCT030 BKN120=

USA.gov is the U.S. government's official web portal to all federal, state and local government web resources and services.